KFOE

Topeka Regional Airport

Topeka, Kansas, USA
KFOE 251358Z 2514/2612 17002KT 2SM BR OVC002 FM251500 21012KT 6SM BR SCT006 BKN012 FM251600 22012KT P6SM VCSH SCT009 OVC020 FM251800 30014G24KT 6SM -SHRA VCTS OVC012CB FM252100 35015G26KT P6SM SCT012 BKN040 FM260200 35007KT P6SM SKC
Issued Valid From Valid To
Sep-25 @ 13:58 UTC
(2 hours ago)
Sep-25 @ 14:00 UTC
(2 hours ago)
Sep-26 @ 12:00 UTC
(in 20 hours)
Expired Click to View Sep-25 @ 14:00 to Sep-25 @ 15:00
KFOE 251358Z 2514/2612 17002KT 2SM BR OVC002
Wind Visibility Clouds Conditions
170° at 2 knots 2 miles
  • Overcast at 200' AGL
  • Mist
From Sep-25 @ 15:00 to Sep-25 @ 16:00
FM251500 21012KT 6SM BR SCT006 BKN012
Wind Visibility Clouds Conditions
210° at 12 knots 6 miles
  • Scattered at 600' AGL
  • Broken at 1,200' AGL
  • Mist
From Sep-25 @ 16:00 to Sep-25 @ 18:00
FM251600 22012KT P6SM VCSH SCT009 OVC020
Wind Visibility Clouds
220° at 12 knots Greater than 6 miles
  • Scattered at 900' AGL
  • Overcast at 2,000' AGL
From Sep-25 @ 18:00 to Sep-25 @ 21:00
FM251800 30014G24KT 6SM -SHRA VCTS OVC012CB
Wind Visibility Clouds Conditions
300° at 14 knots
 Gusting to 24 knots
6 miles
  • Overcast at 1,200' AGL
  • Light Rain
  • Area Thunderstorm
From Sep-25 @ 21:00 to Sep-26 @ 02:00
FM252100 35015G26KT P6SM SCT012 BKN040
Wind Visibility Clouds
350° at 15 knots
 Gusting to 26 knots
Greater than 6 miles
  • Scattered at 1,200' AGL
  • Broken at 4,000' AGL
From Sep-26 @ 02:00 to Sep-26 @ 12:00
FM260200 35007KT P6SM SKC
Wind Visibility Clouds
350° at 7 knots Greater than 6 miles
  • Clear skies
KFOE 251358Z 2514/2612 17002KT 2SM BR OVC002 FM251500 21012KT 6SM BR SCT006 BKN012 FM251600 22012KT P6SM VCSH SCT009 OVC020 FM251800 30014G24KT 6SM -SHRA VCTS OVC012CB FM252100 35015G26KT P6SM SCT012 BKN040 FM260200 35007KT P6SM SKC
Issued Sep-25 @ 13:58 UTC
(2 hours ago)
Valid From Sep-25 @ 14:00 UTC
(2 hours ago)
Valid To Sep-26 @ 12:00 UTC
(in 20 hours)
Sep-25 @ 14:00 - Sep-25 @ 15:00
Wind Visibility
170° at 2 knots 2 miles
Clouds
  • Overcast at 200' AGL
Conditions
  • Mist
From Sep-25 @ 15:00 - Sep-25 @ 16:00
Wind Visibility
210° at 12 knots 6 miles
Clouds
  • Scattered at 600' AGL
  • Broken at 1,200' AGL
Conditions
  • Mist
From Sep-25 @ 16:00 - Sep-25 @ 18:00
Wind Visibility
220° at 12 knots Greater than 6 miles
Clouds
  • Scattered at 900' AGL
  • Overcast at 2,000' AGL
From Sep-25 @ 18:00 - Sep-25 @ 21:00
Wind Visibility
300° at 14 knots
 Gusting to 24 knots
6 miles
Clouds
  • Overcast at 1,200' AGL
Conditions
  • Light Rain
  • Area Thunderstorm
From Sep-25 @ 21:00 - Sep-26 @ 02:00
Wind Visibility
350° at 15 knots
 Gusting to 26 knots
Greater than 6 miles
Clouds
  • Scattered at 1,200' AGL
  • Broken at 4,000' AGL
From Sep-26 @ 02:00 - Sep-26 @ 12:00
Wind Visibility
350° at 7 knots Greater than 6 miles
Clouds
  • Clear skies